Main page
METAR-TAF:

METAR-TAF

Airports :

Newcastle Airport

Newcastle upon Tyne, England

latitude: 55-02N, longitude: 001-42W, elevation: 81 m

Current weather observation

The report was made 31 minutes ago, at 20:20 UTC
Wind 6 kt from the West
Temperature 15°C
Humidity 77%
Pressure 1021 hPa
Visibility 10 km or more
Few clouds at a height of 4000 ft

METAR: EGNT 192020Z 27006KT 9999 FEW040 15/11 Q1021

Time: 21:51 (20:51 UTC)

Forecast

The report was made 3 hours and 51 minutes ago, at 17:00 UTC
Forecast valid from 19 at 18 UTC to 20 at 18 UTC
Wind 9 kt from the West
Visibility 10 km or more
Scattered clouds at a height of 3500 ft
Probability 30% :
Temporary
from 20 at 06 UTC to 20 at 08 UTC
Broken clouds at a height of 1400 ft

TAF: EGNT 191700Z 1918/2018 27009KT 9999 SCT035 PROB30 TEMPO 2006/2008 BKN014

Weather observations and forecasts of more than 4000 airports (METAR and TAF reports).

The available stations are represented by yellow and red dots on the map.

Hover mouse over dot to see the name of the station.

Then click to see weather observations and forecasts.

To change the map : click on the green buttons with a black cross to zoom in, on the green button with a dash to zoom out, or on the green arrows for adjacent maps.


METAR-TAF: